Vandenberg Air Force Base Lompoc US
ICAO: KVBG
IATA: VBG
Category: Large
Scheduled Services: No

Elevation: 369 ft
TransAlt. 18000 ft.

Airport Communications:
SANTA BARB APP/DEP:124.15
COMD POST:31.1
ATIS:133.125
CTAF:124.95
GND/CLNC DEL:121.75
RANGE CON:121.4
PMSV METRO:34.24
PTD:126.2
TWR:124.95

KVBG Zoom In..

Runways:

(A) RW 12 length 15000 ft width 200 ft
ILS 110.10 / hdg 122

(B) RW 30 length 15000 ft width 200 ft
ILS 110.10 / hdg 302

Location; KVBG
Day. 19 / Time. 02.58 Zulu
* Altimeter: 29.97
* Temperature: 14° c. 57.2°f.
* Wind from: 360° Speed 04 kn.
Dewpoint: 13° c.
Visibility: 9 Statute Miles.
Clouds: Overcast 400 ft.
Clouds: Overcast 00 ft.
Clouds: Broken 00 ft.

KVBG 190258Z AUTO 36004KT 9SM OVC004 14/13 A2997 RMK AO2 OVC V BKN SLP151 T01430131 56005


Wind From 360°
Speed 04 kn.

 
 
jpsmedia.com for Web Design worldairports.se 2018   terms of use